Time;durP1;ratioP1;P1;durP2;ratioP2;P2;SDS_P1;SDS_P2;PMS_P1;PMS_P2;Temp;Humidity;BMP_temperature;BMP_pressure;BME280_temperature;BME280_humidity;BME280_pressure;Samples;Min_cycle;Max_cycle;Signal;HPM_P1;HPM_P2
2022/03/13 00:01:56;;;;;;;0.20;0.20;;;6.90;64.30;;;;;;5028914;28;20360;-74
2022/03/13 00:04:21;;;;;;;1.25;1.25;;;6.80;64.90;;;;;;5032397;28;20037;-75
2022/03/13 00:06:49;;;;;;;0.17;0.17;;;6.80;65.60;;;;;;5060012;28;20025;-75
2022/03/13 00:09:14;;;;;;;4.40;1.95;;;6.70;66.30;;;;;;5049958;28;20056;-74
2022/03/13 00:11:40;;;;;;;0.90;0.90;;;6.60;67.10;;;;;;5049475;28;20060;-75
2022/03/13 00:14:08;;;;;;;0.35;0.35;;;6.60;68.20;;;;;;5031413;28;20029;-76
2022/03/13 00:16:34;;;;;;;2.70;2.50;;;6.60;68.80;;;;;;5049921;28;20051;-74
2022/03/13 00:19:00;;;;;;;0.20;0.20;;;6.60;69.40;;;;;;5049741;28;20478;-75
2022/03/13 00:21:26;;;;;;;0.10;0.10;;;6.60;70.40;;;;;;5038769;28;20021;-75
2022/03/13 00:23:52;;;;;;;0.30;0.30;;;6.60;70.90;;;;;;5028254;28;20424;-75
2022/03/13 00:26:18;;;;;;;0.10;0.10;;;6.50;71.70;;;;;;5029584;28;20146;-76
2022/03/13 00:28:45;;;;;;;0.45;0.45;;;6.50;72.70;;;;;;5030286;28;20164;-75
2022/03/13 00:31:11;;;;;;;0.10;0.10;;;6.40;73.40;;;;;;5030066;28;20071;-76
2022/03/13 00:33:38;;;;;;;0.20;0.20;;;6.40;74.10;;;;;;5030162;28;20108;-73
2022/03/13 00:36:04;;;;;;;0.10;0.10;;;6.40;74.30;;;;;;5039868;28;20490;-74
2022/03/13 00:38:30;;;;;;;2.28;2.17;;;6.40;74.80;;;;;;5014380;28;20026;-74
2022/03/13 00:40:57;;;;;;;0.63;0.63;;;6.40;76.00;;;;;;5033277;28;20022;-75
2022/03/13 00:43:25;;;;;;;0.38;0.38;;;6.40;76.90;;;;;;5033078;28;20035;-75
2022/03/13 00:45:51;;;;;;;0.10;0.10;;;6.30;77.50;;;;;;5032966;28;20029;-74
2022/03/13 00:48:17;;;;;;;0.10;0.10;;;6.30;78.30;;;;;;5033249;28;20022;-74
2022/03/13 00:50:43;;;;;;;0.30;0.30;;;6.20;79.90;;;;;;5032745;28;20053;-77
2022/03/13 00:53:09;;;;;;;1.65;1.48;;;6.30;81.00;;;;;;5033599;28;20091;-73
2022/03/13 00:55:34;;;;;;;0.10;0.10;;;6.30;81.60;;;;;;5033635;28;20109;-73
2022/03/13 00:58:01;;;;;;;0.10;0.10;;;6.30;80.70;;;;;;5032991;28;20541;-74
2022/03/13 01:00:26;;;;;;;0.73;0.73;;;6.30;78.80;;;;;;5051002;28;20048;-74
2022/03/13 01:02:52;;;;;;;0.20;0.20;;;6.80;78.20;;;;;;5014777;28;20448;-74
2022/03/13 01:05:23;;;;;;;0.28;0.28;;;6.20;77.90;;;;;;5014987;28;20045;-74
2022/03/13 01:07:50;;;;;;;0.10;0.10;;;6.10;80.30;;;;;;5041511;28;20036;-74
2022/03/13 01:10:15;;;;;;;0.10;0.10;;;6.20;81.40;;;;;;5043224;28;20149;-74
2022/03/13 01:12:41;;;;;;;0.10;0.10;;;6.20;81.90;;;;;;5056051;28;20049;-76
2022/03/13 01:15:08;;;;;;;0.75;0.73;;;6.10;83.00;;;;;;5035518;28;20025;-73
2022/03/13 01:17:34;;;;;;;0.15;0.15;;;6.10;84.90;;;;;;5052689;28;20047;-73
2022/03/13 01:20:02;;;;;;;0.85;0.85;;;6.00;86.70;;;;;;5042281;28;20455;-76
2022/03/13 01:22:28;;;;;;;0.10;0.10;;;6.10;88.30;;;;;;5032452;28;20025;-73
2022/03/13 01:24:54;;;;;;;0.10;0.10;;;5.90;89.40;;;;;;5014454;28;20455;-74
2022/03/13 01:27:21;;;;;;;0.10;0.10;;;5.90;90.60;;;;;;5014978;28;20048;-76
2022/03/13 01:29:47;;;;;;;1.00;1.00;;;5.90;90.50;;;;;;5032348;28;20037;-74
2022/03/13 01:32:14;;;;;;;1.17;1.17;;;5.90;90.60;;;;;;5032563;28;20017;-74
2022/03/13 01:34:50;;;;;;;0.63;0.63;;;5.90;90.50;;;;;;5036432;28;20029;-74
2022/03/13 01:37:27;;;;;;;2.05;1.60;;;5.90;90.90;;;;;;5047490;28;20107;-74
2022/03/13 01:39:54;;;;;;;0.10;0.10;;;5.90;91.10;;;;;;5032118;28;20033;-76
2022/03/13 01:42:20;;;;;;;2.28;2.05;;;5.90;92.10;;;;;;5014423;28;20057;-74
2022/03/13 01:44:45;;;;;;;0.10;0.10;;;5.90;93.20;;;;;;5014170;28;20057;-76
2022/03/13 01:47:11;;;;;;;0.10;0.10;;;5.90;93.90;;;;;;5031867;28;20034;-76
2022/03/13 01:49:37;;;;;;;0.10;0.10;;;5.80;94.50;;;;;;5050924;22;20676;-72
2022/03/13 01:52:03;;;;;;;0.10;0.10;;;5.80;94.50;;;;;;5069673;28;20037;-71
2022/03/13 01:54:30;;;;;;;6.40;2.15;;;5.70;94.80;;;;;;5070511;28;20103;-73
2022/03/13 01:56:57;;;;;;;1.10;1.10;;;5.70;95.30;;;;;;5052075;28;20104;-72
2022/03/13 01:59:23;;;;;;;3.78;3.58;;;5.50;97.30;;;;;;5051957;28;20095;-71
2022/03/13 02:01:48;;;;;;;0.20;0.20;;;5.40;99.40;;;;;;5051694;28;20523;-72
2022/03/13 02:04:22;;;;;;;0.40;0.40;;;5.30;99.90;;;;;;5060934;28;20036;-72
2022/03/13 02:06:47;;;;;;;0.43;0.43;;;5.30;99.90;;;;;;5070946;28;20033;-71
2022/03/13 02:09:13;;;;;;;0.20;0.20;;;5.30;99.90;;;;;;5071266;28;20082;-70
2022/03/13 02:11:42;;;;;;;0.75;0.75;;;5.30;99.90;;;;;;5061966;28;20060;-71
2022/03/13 02:14:10;;;;;;;1.45;1.40;;;5.40;99.90;;;;;;5051279;28;20115;-72
2022/03/13 02:16:37;;;;;;;3.95;3.20;;;5.30;99.90;;;;;;5051096;28;20077;-71
2022/03/13 02:19:05;;;;;;;0.20;0.20;;;5.30;99.90;;;;;;5051158;28;20469;-71
2022/03/13 02:21:38;;;;;;;0.10;0.10;;;5.20;99.90;;;;;;5066621;28;20025;-72
2022/03/13 02:24:11;;;;;;;2.42;2.30;;;5.20;99.90;;;;;;5077840;28;20028;-73
2022/03/13 02:26:36;;;;;;;0.85;0.85;;;5.20;99.90;;;;;;5071120;28;20123;-72
2022/03/13 02:29:03;;;;;;;0.10;0.10;;;5.30;99.90;;;;;;5061403;28;20112;-73
2022/03/13 02:31:32;;;;;;;2.50;2.28;;;5.30;99.90;;;;;;5051464;28;20204;-71
2022/03/13 02:33:58;;;;;;;0.15;0.15;;;5.30;99.90;;;;;;5065260;28;20162;-73
2022/03/13 02:36:44;;;;;;;0.10;0.10;;;5.30;99.90;;;;;;5070772;28;20024;-72
2022/03/13 02:39:11;;;;;;;0.10;0.10;;;5.40;99.90;;;;;;5055812;28;20135;-71
2022/03/13 02:41:40;;;;;;;0.20;0.20;;;5.40;99.90;;;;;;5066090;28;20205;-72
2022/03/13 02:44:08;;;;;;;0.10;0.10;;;5.30;99.90;;;;;;5051132;28;20064;-71
2022/03/13 02:46:46;;;;;;;0.10;0.10;;;5.30;99.90;;;;;;5050560;28;20245;-71
2022/03/13 02:49:14;;;;;;;0.57;0.57;;;5.30;99.90;;;;;;5050817;28;20033;-71
2022/03/13 02:51:41;;;;;;;0.88;0.88;;;5.30;99.90;;;;;;5050714;28;20040;-71
2022/03/13 02:54:07;;;;;;;1.00;1.00;;;5.30;99.90;;;;;;5050459;28;20466;-73
2022/03/13 02:56:33;;;;;;;0.20;0.20;;;5.30;99.90;;;;;;5050007;28;20025;-71
2022/03/13 02:58:58;;;;;;;0.35;0.35;;;5.20;99.90;;;;;;5050672;28;20530;-72
2022/03/13 03:01:24;;;;;;;0.30;0.30;;;5.20;99.90;;;;;;5067310;28;20032;-71
2022/03/13 03:03:53;;;;;;;0.30;0.30;;;5.20;99.90;;;;;;5068957;28;20527;-72
2022/03/13 03:06:19;;;;;;;0.40;0.40;;;5.20;99.90;;;;;;5058804;28;20111;-70
2022/03/13 03:08:45;;;;;;;0.40;0.40;;;5.10;99.90;;;;;;5070420;28;20174;-71
2022/03/13 03:11:11;;;;;;;6.05;3.05;;;5.00;99.90;;;;;;5070462;28;20478;-72
2022/03/13 03:13:36;;;;;;;0.52;0.52;;;4.90;99.90;;;;;;5067662;28;20029;-71
2022/03/13 03:16:02;;;;;;;1.60;1.55;;;4.90;99.90;;;;;;5050186;28;20235;-71
2022/03/13 03:18:28;;;;;;;0.10;0.10;;;4.90;99.90;;;;;;5050472;28;20469;-71
2022/03/13 03:20:53;;;;;;;3.95;3.63;;;4.90;99.90;;;;;;5050197;28;20020;-72
2022/03/13 03:23:19;;;;;;;0.60;0.60;;;4.90;99.90;;;;;;5050041;28;20037;-71
2022/03/13 03:25:45;;;;;;;0.38;0.38;;;4.90;99.90;;;;;;5049905;28;20037;-71
2022/03/13 03:28:16;;;;;;;2.53;2.10;;;5.00;99.90;;;;;;5050144;28;20506;-72
2022/03/13 03:30:41;;;;;;;1.17;1.17;;;5.00;99.90;;;;;;5050182;28;20471;-72
2022/03/13 03:33:07;;;;;;;0.30;0.30;;;5.00;99.90;;;;;;5049961;28;20044;-72
2022/03/13 03:35:34;;;;;;;0.10;0.10;;;4.90;99.90;;;;;;5065808;28;20021;-70
2022/03/13 03:38:00;;;;;;;1.48;0.75;;;4.80;99.90;;;;;;5089011;28;20078;-70
2022/03/13 03:40:28;;;;;;;0.10;0.10;;;4.70;99.90;;;;;;5090604;28;20028;-72
2022/03/13 03:42:59;;;;;;;0.25;0.25;;;4.60;99.90;;;;;;5055202;28;20029;-71
2022/03/13 03:45:25;;;;;;;0.85;0.85;;;4.70;99.90;;;;;;5048526;28;20033;-72
2022/03/13 03:47:51;;;;;;;0.10;0.10;;;4.70;99.90;;;;;;5053149;28;20039;-71
2022/03/13 03:50:17;;;;;;;0.20;0.20;;;4.80;99.90;;;;;;5067319;28;20036;-71
2022/03/13 03:52:44;;;;;;;0.10;0.10;;;4.70;99.90;;;;;;5049929;28;20037;-71
2022/03/13 03:55:09;;;;;;;0.10;0.10;;;4.80;99.90;;;;;;5049783;28;20108;-71
2022/03/13 03:57:35;;;;;;;0.10;0.10;;;4.80;99.90;;;;;;5066073;28;20096;-72
2022/03/13 04:00:00;;;;;;;0.20;0.20;;;4.80;99.90;;;;;;5061050;28;20032;-72
2022/03/13 04:02:26;;;;;;;0.50;0.50;;;4.80;99.90;;;;;;5069667;28;20146;-72
2022/03/13 04:04:52;;;;;;;4.38;2.42;;;4.70;99.90;;;;;;5069169;28;20028;-70
2022/03/13 04:07:18;;;;;;;4.30;4.03;;;4.70;99.90;;;;;;5069554;28;20024;-72
2022/03/13 04:09:43;;;;;;;4.78;3.67;;;4.60;99.90;;;;;;5064525;28;20025;-71
2022/03/13 04:12:10;;;;;;;0.82;0.82;;;4.60;99.90;;;;;;5056502;28;20036;-71
2022/03/13 04:14:35;;;;;;;0.20;0.20;;;4.50;99.90;;;;;;5052957;28;20612;-70
2022/03/13 04:17:02;;;;;;;2.70;2.60;;;4.60;99.90;;;;;;5051124;28;21605;-71
2022/03/13 04:19:28;;;;;;;0.10;0.10;;;4.60;99.90;;;;;;5053698;28;20096;-71
2022/03/13 04:21:55;;;;;;;0.55;0.55;;;4.60;99.90;;;;;;5053851;28;20487;-71
2022/03/13 04:24:21;;;;;;;19.45;3.22;;;4.60;99.90;;;;;;5068761;28;20752;-71
2022/03/13 04:26:48;;;;;;;5.18;1.10;;;4.60;99.90;;;;;;5067180;28;20426;-71
2022/03/13 04:29:14;;;;;;;1.00;1.00;;;4.70;99.90;;;;;;5053160;28;20031;-71
2022/03/13 04:31:41;;;;;;;0.85;0.85;;;4.60;99.90;;;;;;5053215;28;20029;-71
2022/03/13 04:34:07;;;;;;;1.48;0.73;;;4.60;99.90;;;;;;5053417;28;20123;-71
2022/03/13 04:36:33;;;;;;;1.05;1.05;;;4.60;99.90;;;;;;5072761;28;20549;-71
2022/03/13 04:39:01;;;;;;;2.17;2.08;;;4.60;99.90;;;;;;5072127;28;20024;-72
2022/03/13 04:41:26;;;;;;;0.10;0.10;;;4.60;99.90;;;;;;5077022;28;20036;-71
2022/03/13 04:43:53;;;;;;;0.55;0.55;;;4.50;99.90;;;;;;5082164;28;20032;-71
2022/03/13 04:46:18;;;;;;;1.90;1.80;;;4.40;99.90;;;;;;5093115;28;20020;-71
2022/03/13 04:48:44;;;;;;;0.15;0.15;;;4.50;99.90;;;;;;5093198;28;20048;-72
2022/03/13 04:51:10;;;;;;;0.10;0.10;;;4.50;99.90;;;;;;5080045;28;20032;-72
2022/03/13 04:53:35;;;;;;;0.10;0.10;;;4.50;99.90;;;;;;5067343;28;20091;-71
2022/03/13 04:56:02;;;;;;;0.10;0.10;;;4.60;99.90;;;;;;5072829;28;20051;-72
2022/03/13 04:58:28;;;;;;;0.22;0.22;;;4.50;99.90;;;;;;5072706;28;20025;-71
2022/03/13 05:00:53;;;;;;;0.10;0.10;;;4.50;99.90;;;;;;5056296;28;20498;-72
2022/03/13 05:03:19;;;;;;;0.65;0.65;;;4.50;99.90;;;;;;5054566;28;20074;-73
2022/03/13 05:05:45;;;;;;;0.20;0.20;;;4.50;99.90;;;;;;5072255;28;20081;-71
2022/03/13 05:08:14;;;;;;;0.63;0.63;;;4.50;99.90;;;;;;5068227;28;20017;-72
2022/03/13 05:10:42;;;;;;;0.10;0.10;;;4.40;99.90;;;;;;5056914;28;20028;-71
2022/03/13 05:13:11;;;;;;;5.13;2.20;;;4.40;99.90;;;;;;5072666;28;20029;-71
2022/03/13 05:15:37;;;;;;;1.95;1.85;;;4.50;99.90;;;;;;5067806;28;20065;-72
2022/03/13 05:18:04;;;;;;;0.10;0.10;;;4.50;99.90;;;;;;5056713;28;20028;-70
2022/03/13 05:20:31;;;;;;;0.13;0.13;;;4.50;99.90;;;;;;5061466;28;20028;-71
2022/03/13 05:22:57;;;;;;;0.20;0.20;;;4.50;99.90;;;;;;5070948;28;20043;-71
2022/03/13 05:25:24;;;;;;;0.32;0.32;;;4.50;99.90;;;;;;5057747;28;20039;-71
2022/03/13 05:27:50;;;;;;;0.10;0.10;;;4.40;99.90;;;;;;5066026;28;20048;-71
2022/03/13 05:30:16;;;;;;;0.30;0.30;;;4.40;99.90;;;;;;5070267;28;20119;-70
2022/03/13 05:32:42;;;;;;;0.10;0.10;;;4.40;99.90;;;;;;5063616;28;20103;-70
2022/03/13 05:35:08;;;;;;;0.32;0.32;;;4.40;99.90;;;;;;5058584;28;20574;-70
2022/03/13 05:37:33;;;;;;;0.30;0.30;;;4.40;99.90;;;;;;5072174;28;20031;-70
2022/03/13 05:39:59;;;;;;;0.38;0.38;;;4.40;99.90;;;;;;5071880;28;20025;-71
2022/03/13 05:42:25;;;;;;;0.17;0.17;;;4.40;99.90;;;;;;5071970;28;20032;-71
2022/03/13 05:44:54;;;;;;;0.82;0.82;;;4.50;99.90;;;;;;5055245;28;20032;-71
2022/03/13 05:47:21;;;;;;;3.90;3.67;;;4.40;99.90;;;;;;5064281;28;20028;-71
2022/03/13 05:49:47;;;;;;;0.38;0.38;;;4.40;99.90;;;;;;5069893;28;20033;-72
2022/03/13 05:52:15;;;;;;;3.80;3.50;;;4.40;99.90;;;;;;5071997;28;20025;-70
2022/03/13 05:54:44;;;;;;;0.10;0.10;;;4.30;99.90;;;;;;5071307;28;20033;-70
2022/03/13 05:57:11;;;;;;;1.27;1.27;;;4.30;99.90;;;;;;5057393;28;20059;-70
2022/03/13 05:59:39;;;;;;;0.30;0.30;;;4.30;99.90;;;;;;5051780;28;20023;-71
2022/03/13 06:02:06;;;;;;;0.10;0.10;;;4.30;99.90;;;;;;5051717;28;20028;-70
2022/03/13 06:04:34;;;;;;;2.60;2.40;;;4.30;99.90;;;;;;5062840;28;20559;-70
2022/03/13 06:07:00;;;;;;;1.95;1.85;;;4.40;99.90;;;;;;5055638;28;20090;-70
2022/03/13 06:09:26;;;;;;;0.10;0.10;;;4.30;99.90;;;;;;5051265;28;20425;-72
2022/03/13 06:11:52;;;;;;;0.30;0.30;;;4.30;99.90;;;;;;5054689;28;20454;-71
2022/03/13 06:14:18;;;;;;;0.47;0.47;;;4.20;99.90;;;;;;5066652;28;20406;-71
2022/03/13 06:16:44;;;;;;;0.10;0.10;;;4.10;99.90;;;;;;5065857;28;20028;-71
2022/03/13 06:19:10;;;;;;;0.20;0.20;;;4.00;99.90;;;;;;5071217;28;20481;-70
2022/03/13 06:21:35;;;;;;;0.10;0.10;;;3.90;99.90;;;;;;5056412;28;20025;-70
2022/03/13 06:24:01;;;;;;;1.02;1.02;;;3.80;99.90;;;;;;5051324;28;20117;-71
2022/03/13 06:26:27;;;;;;;0.10;0.10;;;3.80;99.90;;;;;;5050584;28;20027;-70
2022/03/13 06:28:52;;;;;;;0.10;0.10;;;3.80;99.90;;;;;;5050885;28;20104;-70
2022/03/13 06:31:18;;;;;;;0.10;0.10;;;3.90;99.90;;;;;;5050827;28;20104;-71
2022/03/13 06:33:45;;;;;;;0.10;0.10;;;3.90;99.90;;;;;;5050705;28;20032;-71
2022/03/13 06:36:12;;;;;;;0.28;0.28;;;4.00;99.90;;;;;;5049943;28;20482;-70
2022/03/13 06:38:38;;;;;;;1.85;1.75;;;4.00;99.90;;;;;;5053811;28;20049;-71
2022/03/13 06:41:04;;;;;;;0.30;0.30;;;4.00;99.90;;;;;;5067419;28;20909;-71
2022/03/13 06:43:29;;;;;;;0.20;0.20;;;4.00;99.90;;;;;;5068736;28;20039;-71
2022/03/13 06:45:56;;;;;;;2.55;1.27;;;4.00;99.90;;;;;;5067272;28;20024;-70
2022/03/13 06:48:21;;;;;;;0.10;0.10;;;4.00;99.90;;;;;;5069162;28;20043;-71
2022/03/13 06:50:48;;;;;;;0.20;0.20;;;4.10;99.90;;;;;;5069611;28;20454;-71
2022/03/13 06:53:14;;;;;;;0.47;0.47;;;4.10;99.90;;;;;;5069700;28;20103;-71
2022/03/13 06:55:40;;;;;;;0.43;0.43;;;4.00;99.90;;;;;;5063467;28;20021;-71
2022/03/13 06:58:06;;;;;;;1.95;1.85;;;4.00;99.90;;;;;;5070031;28;20012;-71
2022/03/13 07:00:33;;;;;;;0.82;0.82;;;4.00;99.90;;;;;;5069535;28;20017;-70
2022/03/13 07:02:59;;;;;;;0.57;0.57;;;4.10;99.90;;;;;;5068393;28;20486;-71
2022/03/13 07:05:25;;;;;;;0.10;0.10;;;4.10;99.90;;;;;;5060773;28;20033;-70
2022/03/13 07:07:55;;;;;;;0.10;0.10;;;4.10;99.90;;;;;;5070564;28;20033;-70
2022/03/13 07:10:21;;;;;;;0.10;0.10;;;4.10;99.90;;;;;;5064327;28;20025;-71
2022/03/13 07:12:47;;;;;;;2.65;2.45;;;4.20;99.90;;;;;;5064730;28;20251;-70
2022/03/13 07:15:14;;;;;;;1.95;1.85;;;4.40;99.90;;;;;;5068260;28;20035;-72
2022/03/13 07:17:44;;;;;;;0.10;0.10;;;4.40;99.90;;;;;;5053520;28;20155;-72
2022/03/13 07:20:10;;;;;;;0.25;0.25;;;4.50;99.90;;;;;;5067114;28;20032;-71
2022/03/13 07:22:36;;;;;;;0.10;0.10;;;4.60;99.90;;;;;;5069768;28;20082;-72
2022/03/13 07:25:01;;;;;;;0.20;0.20;;;4.70;99.90;;;;;;5061510;28;20139;-72
2022/03/13 07:27:27;;;;;;;0.10;0.10;;;4.70;99.90;;;;;;5066665;28;20021;-72
2022/03/13 07:29:53;;;;;;;0.20;0.20;;;4.80;99.90;;;;;;5065090;28;20035;-72
2022/03/13 07:32:19;;;;;;;0.45;0.45;;;5.00;99.90;;;;;;5069553;28;20402;-71
2022/03/13 07:34:45;;;;;;;0.10;0.10;;;5.00;99.90;;;;;;5067533;28;20141;-72
2022/03/13 07:37:10;;;;;;;0.30;0.30;;;5.10;99.90;;;;;;5062003;28;20023;-72
2022/03/13 07:39:41;;;;;;;0.10;0.10;;;5.20;99.90;;;;;;5069179;28;20016;-71
2022/03/13 07:42:08;;;;;;;0.22;0.22;;;5.20;99.90;;;;;;5069088;28;20465;-72
2022/03/13 07:44:34;;;;;;;0.52;0.52;;;5.30;99.90;;;;;;5067971;28;20032;-71
2022/03/13 07:47:00;;;;;;;0.10;0.10;;;5.40;99.90;;;;;;5065956;28;20036;-71
2022/03/13 07:49:25;;;;;;;0.10;0.10;;;5.50;99.90;;;;;;5069683;28;20032;-71
2022/03/13 07:51:51;;;;;;;0.52;0.52;;;5.70;99.90;;;;;;5068746;28;20445;-71
2022/03/13 07:54:20;;;;;;;0.10;0.10;;;5.80;99.90;;;;;;5068470;28;20116;-71
2022/03/13 07:56:46;;;;;;;0.10;0.10;;;5.90;99.90;;;;;;5065163;28;20025;-71
2022/03/13 07:59:12;;;;;;;4.50;4.15;;;6.10;99.90;;;;;;5073283;28;20017;-71
2022/03/13 08:01:38;;;;;;;3.70;3.40;;;6.20;99.90;;;;;;5073913;28;20492;-72
2022/03/13 08:04:07;;;;;;;1.92;1.75;;;6.30;99.90;;;;;;5067621;28;20024;-71
2022/03/13 08:06:35;;;;;;;5.38;4.05;;;6.40;98.40;;;;;;5073290;28;20033;-71
2022/03/13 08:09:01;;;;;;;0.50;0.50;;;6.50;94.50;;;;;;5073543;28;20017;-72
2022/03/13 08:11:27;;;;;;;0.10;0.10;;;6.50;93.70;;;;;;5067350;28;20059;-71
2022/03/13 08:13:52;;;;;;;0.10;0.10;;;6.60;93.10;;;;;;5064659;28;20025;-72
2022/03/13 08:16:18;;;;;;;0.10;0.10;;;6.60;91.70;;;;;;5072503;28;20029;-71
2022/03/13 08:18:44;;;;;;;0.10;0.10;;;6.60;91.00;;;;;;5069961;28;20055;-72
2022/03/13 08:21:10;;;;;;;0.30;0.30;;;6.70;91.40;;;;;;5068549;28;20029;-70
2022/03/13 08:23:35;;;;;;;0.85;0.85;;;6.70;91.40;;;;;;5070728;28;20028;-71
2022/03/13 08:26:01;;;;;;;6.13;1.20;;;6.80;91.30;;;;;;5072059;28;20114;-71
2022/03/13 08:28:27;;;;;;;0.13;0.13;;;6.80;90.70;;;;;;5069950;28;20074;-72
2022/03/13 08:30:52;;;;;;;0.10;0.10;;;6.90;90.30;;;;;;5071379;28;20020;-70
2022/03/13 08:33:18;;;;;;;0.10;0.10;;;7.20;90.40;;;;;;5073012;28;20021;-71
2022/03/13 08:35:44;;;;;;;0.13;0.13;;;7.20;89.30;;;;;;5071867;28;20028;-70
2022/03/13 08:38:10;;;;;;;0.68;0.68;;;7.30;89.70;;;;;;5070996;28;20375;-73
2022/03/13 08:40:36;;;;;;;0.20;0.20;;;7.40;89.00;;;;;;5071168;28;20367;-72
2022/03/13 08:43:01;;;;;;;1.23;1.23;;;7.40;88.30;;;;;;5072110;28;20036;-72
2022/03/13 08:45:27;;;;;;;0.20;0.20;;;7.50;88.60;;;;;;5071532;28;20020;-72
2022/03/13 08:47:53;;;;;;;0.50;0.50;;;7.60;86.00;;;;;;5069570;28;20031;-72
2022/03/13 08:50:20;;;;;;;1.00;0.90;;;7.70;84.70;;;;;;5072661;28;20037;-72
2022/03/13 08:52:46;;;;;;;0.50;0.50;;;7.80;83.50;;;;;;5071875;28;20031;-72
2022/03/13 08:55:15;;;;;;;0.10;0.10;;;7.80;82.90;;;;;;5071373;28;20029;-72
2022/03/13 08:57:45;;;;;;;0.10;0.10;;;7.90;82.00;;;;;;5067720;28;20025;-72
2022/03/13 09:00:17;;;;;;;0.10;0.10;;;8.00;80.50;;;;;;5071123;28;20530;-72
2022/03/13 09:02:44;;;;;;;0.20;0.20;;;8.10;80.50;;;;;;5064537;28;20025;-72
2022/03/13 09:05:10;;;;;;;0.52;0.52;;;8.20;80.60;;;;;;5068626;28;20055;-72
2022/03/13 09:07:36;;;;;;;0.10;0.10;;;8.20;79.50;;;;;;5052684;28;20040;-74
2022/03/13 09:10:03;;;;;;;0.10;0.10;;;8.30;79.60;;;;;;5061232;28;20213;-73
2022/03/13 09:12:31;;;;;;;0.25;0.25;;;8.40;79.60;;;;;;5072614;28;20463;-72
2022/03/13 09:14:57;;;;;;;0.30;0.30;;;8.50;78.20;;;;;;5063981;28;20272;-72
2022/03/13 09:17:23;;;;;;;1.58;1.48;;;8.60;77.80;;;;;;5058240;28;20024;-71
2022/03/13 09:19:48;;;;;;;0.10;0.10;;;8.60;77.90;;;;;;5072187;28;20107;-71
2022/03/13 09:22:14;;;;;;;1.50;1.40;;;8.70;77.60;;;;;;5070950;28;20056;-71
2022/03/13 09:24:41;;;;;;;0.10;0.10;;;8.80;75.60;;;;;;5063149;28;20055;-72
2022/03/13 09:27:06;;;;;;;0.30;0.30;;;8.80;76.70;;;;;;5068704;28;20116;-71
2022/03/13 09:29:32;;;;;;;1.70;1.60;;;9.00;75.80;;;;;;5051380;28;20542;-70
2022/03/13 09:31:58;;;;;;;0.20;0.20;;;9.10;75.60;;;;;;5055998;28;20123;-71
2022/03/13 09:34:24;;;;;;;0.10;0.10;;;9.10;75.40;;;;;;5066050;28;20098;-71
2022/03/13 09:36:50;;;;;;;0.10;0.10;;;9.30;74.50;;;;;;5070480;28;20104;-74
2022/03/13 09:39:15;;;;;;;0.10;0.10;;;9.40;74.80;;;;;;5070303;28;20742;-71
2022/03/13 09:41:42;;;;;;;0.55;0.55;;;9.50;74.20;;;;;;5071032;28;20070;-72
2022/03/13 09:44:08;;;;;;;0.10;0.10;;;9.60;73.70;;;;;;5063773;28;20016;-71
2022/03/13 09:46:38;;;;;;;0.10;0.10;;;9.70;73.00;;;;;;5062646;28;20106;-71
2022/03/13 09:49:04;;;;;;;0.17;0.17;;;9.80;72.80;;;;;;5067968;28;20540;-72
2022/03/13 09:51:30;;;;;;;0.30;0.30;;;9.90;74.00;;;;;;5069279;28;20040;-71
2022/03/13 09:53:57;;;;;;;2.58;2.47;;;10.00;71.50;;;;;;5063695;28;20028;-71
2022/03/13 09:56:23;;;;;;;0.57;0.57;;;10.10;71.20;;;;;;5062285;28;20027;-73
2022/03/13 09:58:48;;;;;;;0.32;0.32;;;10.20;71.80;;;;;;5071905;28;20031;-71
2022/03/13 10:01:14;;;;;;;2.42;2.33;;;10.30;70.90;;;;;;5069839;28;20025;-72
2022/03/13 10:03:40;;;;;;;0.10;0.10;;;10.40;71.50;;;;;;5066360;28;20604;-74
2022/03/13 10:06:06;;;;;;;0.73;0.73;;;10.60;70.40;;;;;;5069771;28;20051;-71
2022/03/13 10:08:33;;;;;;;0.10;0.10;;;10.70;69.70;;;;;;5059359;28;20584;-71
2022/03/13 10:11:02;;;;;;;1.58;1.50;;;10.70;69.70;;;;;;5063190;28;20106;-72
2022/03/13 10:13:43;;;;;;;0.10;0.10;;;10.80;69.70;;;;;;5058531;28;20025;-72
2022/03/13 10:16:15;;;;;;;0.52;0.52;;;10.90;70.00;;;;;;5067217;28;20020;-72
2022/03/13 10:18:41;;;;;;;0.10;0.10;;;11.10;70.20;;;;;;5068500;28;20024;-71
2022/03/13 10:21:12;;;;;;;0.20;0.20;;;11.20;67.90;;;;;;5062782;28;20021;-71
2022/03/13 10:23:39;;;;;;;8.27;7.68;;;11.10;67.70;;;;;;5064071;28;20037;-74
2022/03/13 10:26:05;;;;;;;0.75;0.75;;;11.30;67.80;;;;;;5060669;28;20613;-71
2022/03/13 10:28:32;;;;;;;0.10;0.10;;;11.40;67.60;;;;;;5069730;28;20028;-72
2022/03/13 10:31:00;;;;;;;0.43;0.43;;;11.50;67.30;;;;;;5068621;28;20032;-71
2022/03/13 10:33:28;;;;;;;0.10;0.10;;;11.60;67.60;;;;;;5070521;28;20024;-71
2022/03/13 10:36:22;;;;;;;0.10;0.10;;;11.70;66.90;;;;;;5067675;28;20022;-72
2022/03/13 10:38:49;;;;;;;0.10;0.10;;;12.00;66.10;;;;;;5065382;28;20454;-72
2022/03/13 10:41:15;;;;;;;0.57;0.57;;;12.10;65.30;;;;;;5071073;28;20099;-73
2022/03/13 10:43:51;;;;;;;0.10;0.10;;;12.20;64.80;;;;;;5061614;28;20174;-71
2022/03/13 10:46:29;;;;;;;1.95;1.85;;;12.30;64.80;;;;;;5062966;28;20017;-74
2022/03/13 10:48:56;;;;;;;0.10;0.10;;;12.40;64.60;;;;;;5069700;28;20450;-72
2022/03/13 10:51:33;;;;;;;0.40;0.40;;;12.50;63.00;;;;;;5061369;28;20046;-72
2022/03/13 10:53:59;;;;;;;1.35;1.35;;;12.60;62.80;;;;;;5067384;28;20115;-71
2022/03/13 10:56:25;;;;;;;0.10;0.10;;;12.70;61.90;;;;;;5061222;28;20025;-71
2022/03/13 10:58:51;;;;;;;4.50;4.20;;;12.70;61.80;;;;;;5070275;28;20500;-73
2022/03/13 11:01:18;;;;;;;0.10;0.10;;;12.80;61.00;;;;;;5070135;28;20454;-73
2022/03/13 11:03:55;;;;;;;1.17;1.08;;;12.90;61.70;;;;;;5050867;28;20021;-71
2022/03/13 11:06:23;;;;;;;0.10;0.10;;;13.00;60.40;;;;;;5066944;28;20039;-72
2022/03/13 11:08:55;;;;;;;0.28;0.28;;;13.00;59.30;;;;;;5070762;28;20016;-71
2022/03/13 11:11:22;;;;;;;0.20;0.20;;;13.10;58.70;;;;;;5067408;28;20036;-72
2022/03/13 11:13:53;;;;;;;0.10;0.10;;;13.20;58.80;;;;;;5081590;28;20164;-72
2022/03/13 11:16:26;;;;;;;1.55;1.45;;;13.30;58.40;;;;;;5070402;28;20028;-70
2022/03/13 11:18:53;;;;;;;;;;;13.40;58.40;;;;;;5069536;28;20033;-72
2022/03/13 11:21:20;;;;;;;0.20;0.20;;;13.50;57.70;;;;;;5060086;28;19909;-73
2022/03/13 11:23:47;;;;;;;0.10;0.10;;;13.60;57.40;;;;;;5062250;28;20032;-74
2022/03/13 11:26:18;;;;;;;0.80;0.80;;;13.50;58.20;;;;;;5069881;28;20020;-71
2022/03/13 11:28:46;;;;;;;0.22;0.22;;;13.60;57.80;;;;;;5063749;28;20066;-71
2022/03/13 11:31:36;;;;;;;0.40;0.40;;;13.70;57.20;;;;;;5066543;28;20544;-73
2022/03/13 11:34:12;;;;;;;0.10;0.10;;;13.70;57.40;;;;;;5069417;28;20043;-71
2022/03/13 11:36:40;;;;;;;1.35;1.30;;;13.70;57.50;;;;;;5062968;28;20043;-72
2022/03/13 11:39:08;;;;;;;3.67;3.40;;;13.70;57.60;;;;;;5069168;28;20024;-72
2022/03/13 11:41:36;;;;;;;0.47;0.47;;;13.90;57.90;;;;;;5068890;28;20070;-72
2022/03/13 11:44:22;;;;;;;0.17;0.17;;;14.10;57.40;;;;;;5066125;28;20060;-73
2022/03/13 11:46:50;;;;;;;1.63;1.58;;;14.10;57.10;;;;;;5063237;28;20051;-72
2022/03/13 11:49:26;;;;;;;0.20;0.20;;;14.10;56.50;;;;;;5067135;28;20025;-71
2022/03/13 11:52:10;;;;;;;0.10;0.10;;;14.20;56.60;;;;;;5069650;28;20040;-73
2022/03/13 11:54:44;;;;;;;;;;;14.20;55.50;;;;;;5058113;28;20032;-71
2022/03/13 11:57:15;;;;;;;0.30;0.30;;;14.20;54.90;;;;;;5070273;28;19924;-72
2022/03/13 11:59:40;;;;;;;0.10;0.10;;;14.20;54.80;;;;;;5068634;28;20504;-71
2022/03/13 12:02:10;;;;;;;2.00;1.90;;;14.30;54.80;;;;;;5062034;28;20044;-70
2022/03/13 12:04:36;;;;;;;0.95;0.95;;;14.20;54.10;;;;;;5066284;28;20029;-73
2022/03/13 12:07:06;;;;;;;0.15;0.15;;;14.70;54.50;;;;;;5066023;28;20509;-73
2022/03/13 12:09:43;;;;;;;0.10;0.10;;;14.50;53.90;;;;;;5057991;28;20037;-70
2022/03/13 12:12:12;;;;;;;0.25;0.25;;;14.50;54.00;;;;;;5064113;28;20101;-72
2022/03/13 12:15:05;;;;;;;0.60;0.60;;;14.50;53.80;;;;;;5069493;28;20106;-71
2022/03/13 12:17:47;;;;;;;0.10;0.10;;;14.60;53.20;;;;;;5065811;28;20047;-71
2022/03/13 12:20:26;;;;;;;1.55;1.45;;;14.70;53.40;;;;;;5066443;28;20081;-72
2022/03/13 12:23:00;;;;;;;0.10;0.10;;;14.70;52.90;;;;;;5069043;28;20021;-71
2022/03/13 12:25:27;;;;;;;1.40;1.30;;;14.70;52.70;;;;;;5065108;28;20040;-71
2022/03/13 12:27:56;;;;;;;2.58;2.40;;;14.70;52.50;;;;;;5063637;28;20115;-72
2022/03/13 12:30:27;;;;;;;0.10;0.10;;;14.70;52.70;;;;;;5069390;28;20082;-71
2022/03/13 12:33:05;;;;;;;0.57;0.55;;;14.70;52.20;;;;;;5061395;28;20124;-73
2022/03/13 12:35:31;;;;;;;3.35;2.53;;;14.70;51.80;;;;;;5070722;28;20038;-71
2022/03/13 12:38:00;;;;;;;0.40;0.40;;;14.60;51.90;;;;;;5071931;28;20024;-72
2022/03/13 12:40:27;;;;;;;4.43;3.92;;;14.80;51.70;;;;;;5065149;28;20020;-71
2022/03/13 12:42:54;;;;;;;3.88;3.50;;;14.90;51.90;;;;;;5071208;28;20024;-73
2022/03/13 12:45:21;;;;;;;0.57;0.57;;;14.90;51.30;;;;;;5070159;28;20032;-73
2022/03/13 12:47:47;;;;;;;3.60;3.30;;;15.00;51.30;;;;;;5072061;28;20062;-74
2022/03/13 12:50:15;;;;;;;0.17;0.17;;;15.00;50.90;;;;;;5060604;28;20032;-73
2022/03/13 12:52:42;;;;;;;0.30;0.30;;;15.00;51.00;;;;;;5071979;28;20070;-72
2022/03/13 12:55:09;;;;;;;0.65;0.65;;;15.20;50.30;;;;;;5068241;28;20397;-72
2022/03/13 12:57:36;;;;;;;0.10;0.10;;;15.30;50.10;;;;;;5071926;28;20021;-74